Flugwetter Haslital by BIRDWING.ch
alle Angaben ohne Gewähr
code & design by arbyte.ch


Planplatten 2245m
24.08.19  21:451|5  NNW11.2°C89%
24.08.19  21:304|7  NNW11.2°C89%
24.08.19  21:151|8  NNW11.1°C91%
24.08.19  20:453|10  NW11.0°C97%
24.08.19  20:156|11  NNW11.5°C97%
➜ Windstation Planplatten

Meiringen 589m
24.08.19  21:404|7  SSO17.4°C88%
24.08.19  21:307|9  SO18.4°C85%
24.08.19  21:205|7  SO18.8°C82%
24.08.19  21:003|7  OSO18.6°C84%
24.08.19  20:402|3  S19.6°C80%

Brienz 567m
24.08.19  21:405|10  OSO
24.08.19  21:307|11  OSO
24.08.19  21:206|9  OSO
24.08.19  21:006|9  O
24.08.19  20:406|10  O

Gütsch ob Andermatt 2283m
24.08.19  21:4011|16  NO10.2°C89%
24.08.19  21:306|10  NNO10.3°C85%
24.08.19  21:207|10  NO10.3°C85%
24.08.19  21:009|14  N10.3°C86%
24.08.19  20:4012|18  N10.6°C86%

Höhematte Metropole 566m
24.08.19  21:487|16  SO20.2°C74%
24.08.19  21:388|13  OSO20.1°C74%
24.08.19  21:288|10  OSO20.3°C73%
24.08.19  21:087|10  O20.9°C72%
24.08.19  20:487|11  OSO21.3°C70%

Niederhorn 1950m
24.08.19  21:4812|13  SO12.8°C89%
24.08.19  21:3812|13  SO12.8°C89%
24.08.19  21:2811|13  SO12.6°C87%
24.08.19  21:0811|12  O12.7°C89%
24.08.19  20:487|8  NNO12.8°C89%

. . . . . . . . .

Bänzlauistock 2528m
24.08.19  21:307|10  N
24.08.19  21:008|12  NNW
24.08.19  20:3010|15  NNW
24.08.19  20:007|13  NNW
24.08.19  19:306|12  NW

Sidelhorn 2733m
24.08.19  21:3014|19  N
24.08.19  21:0021|31  N
24.08.19  20:3019|31  N
24.08.19  20:0021|33  N
24.08.19  19:3021|25  NNO

Brienzer Rothorn 2348m
24.08.19  21:305|7  W
24.08.19  21:004|8  W
24.08.19  20:301|5  NW
24.08.19  20:002|5  NNW
24.08.19  19:303|7  NW

Altdorf 438m
24.08.19  21:406|8  S18.3°C83%
24.08.19  21:305|7  S17.4°C89%
24.08.19  21:204|8  S18.2°C85%
24.08.19  21:004|5  SO19.1°C81%
24.08.19  20:404|6  S17.7°C89%

Chasseral 1599m
24.08.19  21:4015|15  SO14.4°C83%
24.08.19  21:3013|15  SO14.6°C79%
24.08.19  21:2014|15  SO14.4°C84%
24.08.19  21:0014|16  SO14.6°C77%
24.08.19  20:4014|15  SO14.2°C88%

Eggishorn 2893m
24.08.19  21:405|7  S7.0°C91%
24.08.19  21:305|8  S7.3°C89%
24.08.19  21:204|8  SSW7.3°C89%
24.08.19  21:003|6  SSO7.6°C84%
24.08.19  20:403|5  SO7.6°C87%

Giswil 471m
24.08.19  21:405|6  W17.4°C98%
24.08.19  21:304|6  WSW18.2°C97%
24.08.19  21:204|5  WSW17.9°C98%
24.08.19  21:005|6  WSW18.3°C98%
24.08.19  20:404|5  W18.8°C97%

Glarus 517m
24.08.19  21:402|5  O17.3°C80%
24.08.19  21:301|1  SSW18.1°C76%
24.08.19  21:202|3  OSO17.9°C78%
24.08.19  21:000|2  WSW18.1°C76%
24.08.19  20:402|4  WSW18.4°C76%

Gornergrat 3129m
24.08.19  21:400|0  N
24.08.19  21:300|0  N
24.08.19  21:200|0  N
24.08.19  21:000|0  N
24.08.19  20:400|0  N

Grimsel Hospiz 1980m
24.08.19  21:403|5  S12.2°C91%
24.08.19  21:303|5  SW12.3°C92%
24.08.19  21:203|8  SO11.9°C93%
24.08.19  21:004|9  N12.1°C92%
24.08.19  20:406|10  N12.4°C90%

Jungfraujoch 3580m
24.08.19  21:401|4  WNW2.2°C74%
24.08.19  21:304|7  NW1.6°C79%
24.08.19  21:205|10  NW1.4°C91%
24.08.19  21:007|13  NNW1.3°C95%
24.08.19  20:4013|17  NNW1.6°C96%

Luzern 454m
24.08.19  21:402|4  WSW19.0°C86%
24.08.19  21:303|5  SW18.4°C87%
24.08.19  21:205|8  WSW18.8°C86%
24.08.19  21:006|9  WSW19.9°C82%
24.08.19  20:406|9  WSW20.8°C78%

Le Moléson 1974m
24.08.19  21:404|5  SW14.4°C18%
24.08.19  21:304|5  WSW14.5°C12%
24.08.19  21:206|7  WSW13.9°C36%
24.08.19  21:004|6  WSW14.4°C27%
24.08.19  20:407|8  WSW14.0°C23%

Napf 1404m
24.08.19  21:404|7  O16.6°C78%
24.08.19  21:305|8  NO16.3°C81%
24.08.19  21:205|9  ONO16.3°C81%
24.08.19  21:005|8  ONO15.6°C86%
24.08.19  20:405|8  OSO16.0°C84%

Säntis 2502m
24.08.19  21:403|10  W9.2°C62%
24.08.19  21:305|10  W9.4°C54%
24.08.19  21:205|10  W9.5°C53%
24.08.19  21:003|8  W9.5°C65%
24.08.19  20:404|13  W9.4°C62%

Thun 570m
24.08.19  21:402|4  S18.3°C89%
24.08.19  21:301|4  SSO18.0°C91%
24.08.19  21:204|5  S18.3°C90%
24.08.19  21:004|7  W19.5°C82%
24.08.19  20:405|8  SSW19.4°C85%

Titlis 3040m
24.08.19  21:406|8  W4.7°C95%
24.08.19  21:306|9  W4.9°C95%
24.08.19  21:2010|14  WNW4.9°C95%
24.08.19  21:0011|15  NW4.9°C94%
24.08.19  20:409|13  WNW5.4°C91%


QNH Druckwerte vom 24.08.2019 21:40
Interlaken1021.0 hPa
Zürich (SMA)1021.1 hPa
Acquarossa / Comprovasco1021.5 hPa
Locarno/Monti1019.9 hPa
Genève-Cointrin1019.7 hPa

Δ Comprovasco - Interlaken in hPa
24.08.19  21:401021.5 - 1021.0 =0.5
24.08.19  21:301021.4 - 1021.1 =0.3
24.08.19  21:101021.2 - 1021.0 =0.2
24.08.19  20:401020.9 - 1020.8 =0.1
24.08.19  19:401020.6 - 1020.6 =0.0

Δ Locarno - Zürich in hPa
24.08.19  21:401019.9 - 1021.1 =-1.2
24.08.19  21:301019.8 - 1021.1 =-1.3
24.08.19  21:101019.7 - 1021.1 =-1.4
24.08.19  20:401019.2 - 1021.0 =-1.8
24.08.19  19:401019.0 - 1021.1 =-2.1

Δ Genf - Bodensee in hPa
24.08.19  21:401019.7 - 1020.5 =-0.8
24.08.19  21:301019.6 - 1020.5 =-0.9
24.08.19  21:101019.5 - 1020.5 =-1.0
24.08.19  20:401019.4 - 1020.3 =-0.9
24.08.19  19:401019.3 - 1020.5 =-1.2

Temp Meiringen - Planplatten in °C/100m
24.08.19  21:4017.4 - 11.2 = 6.20.37
24.08.19  21:1019.1 - 11.0 = 8.10.49
24.08.19  20:4019.6 - 11.5 = 8.10.49

Temp Lehn - Niederhorn in °C/100m
24.08.19  21:4820.1 - 12.8 = 7.30.53
24.08.19  21:1820.2 - 12.7 = 7.50.54
24.08.19  20:4820.8 - 12.8 = 8.00.58

Temp Luzern - Pilatus in °C/100m
24.08.19  21:4019.0 - 12.5 = 6.50.39
24.08.19  21:1020.2 - 12.7 = 7.50.45
24.08.19  20:4020.8 - 12.7 = 8.10.49